This is the latest recevied weather packets stored in our database for station/object AC0MR. If no packets are shown the sender has not sent any weather packets the latest 1 day(s).
| Time | Temp. | Humidity | Pressure | Rain* | Wind** | Luminosity | Snow |
|---|---|---|---|---|---|---|---|
| 1778044519 | 6.67° C | 59% | 1011.8 hPa | 0 mm | - | 0 W/m² | - |
| 1778043919 | 6.67° C | 58% | 1011.7 hPa | 0 mm | - | 0 W/m² | - |
| 1778043318 | 7.22° C | 57% | 1011.8 hPa | 0 mm | - | 0 W/m² | - |
| 1778042718 | 7.78° C | 55% | 1011.7 hPa | 0 mm | - | 0 W/m² | - |
| 1778042118 | 7.78° C | 54% | 1011.6 hPa | 0 mm | - | 0 W/m² | - |
| 1778040918 | 8.33° C | 51% | 1011.4 hPa | 0 mm | - | 0 W/m² | - |
| 1778040318 | 8.33° C | 51% | 1011.3 hPa | 0 mm | - | 0 W/m² | - |
| 1778039718 | 8.33° C | 51% | 1011.2 hPa | 0 mm | - | 0 W/m² | - |
| 1778038518 | 8.33° C | 51% | 1011.2 hPa | 0 mm | - | 0 W/m² | - |
| 1778037918 | 8.89° C | 50% | 1011.3 hPa | 0 mm | - | 0 W/m² | - |
| 1778037320 | 8.89° C | 50% | 1011.3 hPa | 0 mm | - | 0 W/m² | - |
| 1778035518 | 9.44° C | 48% | 1010.8 hPa | 0 mm | - | 0 W/m² | - |
| 1778034920 | 9.44° C | 47% | 1010.7 hPa | 0 mm | - | 0 W/m² | - |
| 1778033719 | 10° C | 46% | 1010.4 hPa | 0 mm | - | 0 W/m² | - |
| 1778033119 | 10.56° C | 45% | 1010.3 hPa | 0 mm | - | 0 W/m² | - |
| 1778032519 | 10.56° C | 44% | 1010.3 hPa | 0 mm | - | 0 W/m² | - |
| 1778030119 | 11.67° C | 42% | 1009.3 hPa | 0 mm | - | 0 W/m² | - |
| 1778028319 | 12.22° C | 40% | 1008.8 hPa | 0 mm | - | 16 W/m² | - |
| 1778027719 | 12.78° C | 40% | 1008.6 hPa | 0 mm | - | 28 W/m² | - |
| 1778019919 | 15° C | 34% | 1008 hPa | 0 mm | - | 156 W/m² | - |
| 1778018719 | 15.56° C | 34% | 1008.2 hPa | 0 mm | - | 225 W/m² | - |
| 1778018119 | 15.56° C | 35% | 1008.3 hPa | 0 mm | - | 250 W/m² | - |
| 1778016919 | 16.11° C | 34% | 1008.2 hPa | 0 mm | - | 393 W/m² | - |
| 1778016319 | 16.11° C | 35% | 1008.4 hPa | 0 mm | - | 613 W/m² | - |
| 1778012719 | 15.56° C | 33% | 1008.7 hPa | 0 mm | - | 358 W/m² | - |
* Rain latest hour (hover to see other rain measurements)
** Current wind speed in m/s (hover to see current wind gust speed)